Startpagina
METAR-TAF:

METAR-TAF

Vliegvelden :

Luchthaven Warschau Frédéric Chopin

Warschau, Polen

breedte: 52-10N, lengte: 020-58E, hoogte: 106 m

Actueel weer

Dit bericht is 17 minuten geleden gemaakt, om 21:00 UTC
Wind 3 kt uit het zuidzuidwesten
Temperatuur 18°C
Vochtigheid 83%
Druk 1011 hPa
Zicht 10 km of meer
geen wolken onder 1500 m en geen cumulonimbus

METAR: EPWA 212100Z 20003KT CAVOK 18/15 Q1011 NOSIG

Tijdstip: 23:17 (21:17 UTC)

Verwachting

Dit bericht is 47 minuten geleden gemaakt, om 20:30 UTC
Verwachting geldig van 21 om 21 UTC tot 22 om 21 UTC
Wind 2 kt uit variabele richting
Zicht 10 km of meer
geen wolken onder 1500 m en geen cumulonimbus
Wijzigt naar
van 22 om 09 UTC tot 22 om 11 UTC
Wind 10 kt uit het noordnoordwesten

TAF: EPWA 212030Z 2121/2221 VRB02KT CAVOK BECMG 2209/2211 34010KT

Waarnemingen en weersverwachtingen van meer dan 4000 vliegvelden (METAR en TAF).

De beschikbare stations zijn de gele en rode punten op de kaart.

Ga met uw muis naar het station om de naam te zien.

Klik dan om waarnemingen en weersverwachtingen te zien.

kaart wijzigen: klik op de groene knoppen met een zwart kruis om in te zoomen, op de groene knop met een streepje om uit te zoomen of op de groene pijlen voor aangrenzende kaarten.


METAR-TAF: